Terminal Aerodrome Forecast
Issued by NWS Albany, NY

Home | Current Version | Previous Version | Text Only | Print | Product List | Glossary On
Versions: 1 2 3 4 5 6 7 8 9 10 11 12 13 14 15 16 17 18 19
000
FTUS41 KALY 281200 AAA
TAFGFL
TAF AMD
KGFL 281221Z 2812/2912 07007KT P6SM VCSH SCT030 OVC060
      TEMPO 2812/2814 2SM -SHSN BKN030
     FM281600 03006KT P6SM SCT025 BKN100
     FM282200 VRB03KT P6SM SCT250=

USA.gov is the U.S. government's official web portal to all federal, state and local government web resources and services.